Latest Coastal Weather Observations for Carnarvon

IDW60701

Issued at 9:12 am WST Tuesday 25 June 2024 (issued every 10 minutes, with the page automatically refreshed every 10 minutes)

About coastal observations | Map of coastal stations | Coastal observations for WA | Marine services | Other Formats
Station Details ID: 006011 Name: CARNARVON AIRPORT Lat: -24.89 Lon: 113.67 Height: 4.0 m
Data from the previous 72 hours. | See also: Recent months at Carnarvon
Date/Time
WST
Wind Sea
Height
m
Swell Vis
km
Cloud Weather Temp
°C
Press
MSL
hPa
Rain since
9am
mm
Dir  Spd
kts
Gust
kts
Height
m
Period
s
Dir
25/09:00am E 7 10 - - - - 10 Clear - 15.3 1015.1 0.0
25/08:30am ESE 7 9 - - - - 10 - - 13.7 1015.0 0.0
25/08:00am ESE 7 9 - - - - 10 - - 11.0 1014.7 0.0
25/07:30am ESE 6 7 - - - - 10 - - 9.1 1014.6 0.0
25/07:00am ESE 6 7 - - - - 10 - - 8.8 1014.7 0.0
25/06:30am ESE 5 7 - - - - 10 - - 9.0 1014.8 0.0
25/06:00am SE 7 8 - - - - 10 - - 9.2 1014.8 0.0
25/05:30am ESE 6 8 - - - - 10 - - 9.8 1014.8 0.0
25/05:00am SE 8 9 - - - - 10 - - 9.7 1014.9 0.0
25/04:30am ESE 7 8 - - - - 10 - - 9.8 1015.2 0.0
25/04:00am SE 7 8 - - - - 10 - - 10.0 1015.6 0.0
25/03:30am SE 6 8 - - - - 10 - - 10.2 1015.8 0.0
25/03:00am ESE 7 9 - - - - 10 - - 10.7 1015.8 0.0
25/02:30am ESE 10 13 - - - - 10 - - 11.4 1015.9 0.0
25/02:00am SE 10 12 - - - - 10 - - 11.3 1016.2 0.0
25/01:30am SE 7 9 - - - - 10 - - 10.9 1016.5 0.0
25/01:00am SE 8 10 - - - - 10 - - 11.2 1016.7 0.0
25/12:30am SE 7 8 - - - - 10 - - 11.2 1016.9 0.0
25/12:00am SSE 7 8 - - - - 10 - - 11.4 1017.1 0.0
 
Date/Time
WST
Wind Sea
Height
m
Swell Vis
km
Cloud Weather Temp
°C
Press
MSL
hPa
Rain since
9am
mm
Dir  Spd
kts
Gust
kts
Height
m
Period
s
Dir
24/11:30pm SSE 7 9 - - - - 10 - - 12.0 1017.5 0.0
24/11:00pm SSE 8 9 - - - - 10 - - 12.4 1017.7 0.0
24/10:30pm SSE 8 9 - - - - 10 - - 12.8 1017.7 0.0
24/10:00pm SSE 8 10 - - - - 10 - - 13.3 1017.7 0.0
24/09:30pm SE 8 8 - - - - 10 - - 13.4 1017.8 0.0
24/09:00pm SE 8 10 - - - - 10 - - 14.0 1017.9 0.0
24/08:30pm SE 9 11 - - - - 10 - - 14.7 1017.8 0.0
24/08:00pm SSE 10 13 - - - - 10 - - 15.3 1017.8 0.0
24/07:30pm SSE 11 14 - - - - 10 - - 15.9 1017.7 0.0
24/07:00pm SSE 11 13 - - - - 10 - - 16.2 1017.6 0.0
24/06:30pm SSE 11 15 - - - - 10 - - 16.5 1017.5 0.0
24/06:00pm SSE 10 14 - - - - 10 - - 17.0 1017.4 0.0
24/05:30pm SSE 11 14 - - - - 10 - - 18.2 1017.4 0.0
24/05:00pm SSE 13 15 - - - - 10 - - 19.5 1017.5 0.0
24/04:30pm SSE 13 16 - - - - 10 - - 20.2 1017.6 0.0
24/04:00pm S 13 17 - - - - 10 - - 20.7 1017.6 0.0
24/03:30pm SSE 13 17 - - - - 10 - - 21.4 1017.8 0.0
24/03:00pm SE 13 18 - - - - 10 - - 22.1 1017.9 0.0
24/02:30pm SSE 13 16 - - - - 10 - - 22.5 1018.3 0.0
24/02:00pm SE 14 19 - - - - 10 - - 22.2 1018.6 0.0
24/01:30pm SE 13 17 - - - - 10 - - 21.7 1018.9 0.0
24/01:00pm SE 14 18 - - - - 10 - - 21.0 1019.3 0.0
24/12:30pm SE 13 17 - - - - 10 - - 20.8 1019.8 0.0
24/12:00pm SE 14 19 - - - - 10 - - 19.8 1020.6 0.0
24/11:30am SE 13 17 - - - - 10 - - 19.5 1021.1 0.0
24/11:00am SE 15 19 - - - - 10 - - 18.6 1021.5 0.0
24/10:30am ESE 14 17 - - - - 10 - - 18.1 1021.8 0.0
24/10:00am SE 15 18 - - - - 10 - - 17.3 1022.0 0.0
24/09:30am ESE 13 19 - - - - 10 - - 16.4 1022.1 0.0
24/09:00am SE 14 19 - - - - 10 - - 15.1 1022.1 0.0
24/08:30am SE 15 19 - - - - 10 - - 13.7 1021.8 0.0
24/08:00am SE 11 14 - - - - 10 - - 12.6 1021.6 0.0
24/07:30am SE 10 13 - - - - 10 - - 11.7 1021.3 0.0
24/07:00am SE 11 14 - - - - 10 - - 11.7 1021.0 0.0
24/06:30am SE 11 14 - - - - 10 - - 11.9 1020.8 0.0
24/06:00am SE 11 15 - - - - 10 - - 12.3 1020.7 0.0
24/05:30am SE 11 14 - - - - 10 - - 12.6 1020.6 0.0
24/05:00am SE 11 14 - - - - 10 - - 12.8 1020.4 0.0
24/04:30am SE 11 14 - - - - 10 - - 12.9 1020.6 0.0
24/04:00am SE 11 13 - - - - 10 - - 13.0 1020.7 0.0
24/03:30am SE 11 13 - - - - 10 - - 13.2 1020.7 0.0
24/03:00am SE 10 12 - - - - 10 - - 13.3 1021.0 0.0
24/02:30am SE 10 12 - - - - 10 - - 13.4 1021.1 0.0
24/02:00am SSE 9 12 - - - - 10 - - 13.7 1021.4 0.0
24/01:30am SSE 10 12 - - - - 10 - - 14.2 1021.6 0.0
24/01:00am SE 10 12 - - - - 10 - - 14.6 1021.6 0.0
24/12:30am SE 10 13 - - - - 10 - - 15.0 1021.7 0.0
24/12:00am SSE 9 12 - - - - 10 - - 15.2 1021.9 0.0
 
Date/Time
WST
Wind Sea
Height
m
Swell Vis
km
Cloud Weather Temp
°C
Press
MSL
hPa
Rain since
9am
mm
Dir  Spd
kts
Gust
kts
Height
m
Period
s
Dir
23/11:30pm SSE 9 11 - - - - 10 - - 15.4 1022.2 0.0
23/11:00pm SSE 10 12 - - - - 10 - - 16.1 1022.2 0.0
23/10:30pm SSE 11 14 - - - - 10 - - 16.5 1022.2 0.0
23/10:00pm SSE 11 14 - - - - 10 - - 16.8 1022.1 0.0
23/09:30pm SSE 11 14 - - - - 10 - - 17.1 1021.9 0.0
23/09:00pm SSE 12 15 - - - - 10 - - 17.6 1021.9 0.0
23/08:30pm SSE 12 16 - - - - 10 - - 18.0 1021.7 0.0
23/08:00pm SSE 11 13 - - - - 10 - - 17.9 1021.4 0.0
23/07:30pm SSE 11 14 - - - - 10 - - 18.0 1021.1 0.0
23/07:00pm SSE 11 14 - - - - 10 - - 18.2 1020.7 0.0
23/06:30pm SSE 11 14 - - - - 10 - - 18.4 1020.5 0.0
23/06:00pm SSE 11 13 - - - - 10 - - 18.9 1020.4 0.0
23/05:30pm S 11 15 - - - - 10 - - 19.8 1020.3 0.0
23/05:00pm S 14 18 - - - - 10 - - 20.5 1020.0 0.0
23/04:30pm SSE 13 18 - - - - 10 - - 21.4 1019.9 0.0
23/04:00pm S 13 17 - - - - 10 - - 21.5 1019.9 0.0
23/03:30pm SSE 14 19 - - - - - - - 21.8 - 0.0
23/03:00pm S 14 18 - - - - - Mostly clear - 21.8 1020.1 0.0
23/02:30pm SSE 16 19 - - - - 10 - - 21.7 1020.2 0.0
23/02:00pm SSE 15 19 - - - - - - - 21.7 1020.4 0.0
23/01:30pm SSE 13 19 - - - - 10 - - 21.7 1020.7 0.0
23/01:00pm SSE 14 19 - - - - - - - 21.6 1021.2 0.0
23/12:30pm SSE 13 18 - - - - - - - 21.3 - 0.0
23/12:00pm SSE 13 17 - - - - 10 Partly cloudy - 20.5 1022.1 0.0
23/11:30am SSE 12 16 - - - - 10 Partly cloudy - 19.9 1022.6 0.0
23/11:00am SSE 12 15 - - - - 10 Partly cloudy - 19.6 1023.0 0.0
23/10:30am SSE 12 16 - - - - 10 Partly cloudy - 18.3 1023.2 0.0
23/10:00am SSE 11 15 - - - - 10 Cloudy - 17.6 1023.3 0.0
23/09:30am SSE 12 16 - - - - 10 Cloudy - 16.5 1023.1 0.0
23/09:00am SSE 12 16 - - - - 10 Mostly cloudy - 16.5 1022.6 11.2
23/08:38am SSE 11 15 - - - - 10 Partly cloudy - 16.5 1022.6 11.2
23/08:30am SSE 10 15 - - - - - - - 16.6 - 11.2
23/08:00am S 14 18 - - - - 10 Cloudy - 16.6 1022.1 11.2
23/07:30am SSE 9 14 - - - - 10 Partly cloudy - 16.6 1021.8 11.2
23/07:00am SSE 8 11 - - - - 10 Cloudy - 16.6 1021.3 11.2
23/06:30am SE 6 7 - - - - 10 Cloudy - 16.5 1021.2 11.2
23/06:00am SSE 8 11 - - - - 10 Cloudy - 16.5 1021.0 11.2
23/05:30am SSE 9 11 - - - - 10 Cloudy - 16.5 1020.9 11.2
23/05:00am SE 8 11 - - - - 10 Cloudy - 16.5 1020.8 11.2
23/04:30am SE 10 14 - - - - 10 Cloudy - 16.5 1020.8 11.2
23/04:00am SE 11 15 - - - - 10 Cloudy - 16.6 1020.8 11.2
23/03:30am SSE 10 14 - - - - 10 Partly cloudy - 16.6 1020.8 11.2
23/03:00am SSE 11 15 - - - - 10 Cloudy - 16.6 1020.8 11.2
23/02:30am SSE 10 13 - - - - 10 Partly cloudy - 16.7 1021.0 11.2
23/02:00am SE 9 11 - - - - - - - 16.7 1021.0 11.2
23/01:30am ESE 9 12 - - - - 10 Cloudy - 16.8 1020.7 11.2
23/01:00am E 10 13 - - - - - - - 16.7 1020.7 11.2
23/12:30am ESE 9 11 - - - - - - - 16.7 - 11.2
23/12:00am ESE 9 11 - - - - 10 Cloudy Recent precip. 16.7 1021.2 11.2
 
Date/Time
WST
Wind Sea
Height
m
Swell Vis
km
Cloud Weather Temp
°C
Press
MSL
hPa
Rain since
9am
mm
Dir  Spd
kts
Gust
kts
Height
m
Period
s
Dir
22/11:30pm E 10 17 - - - - - - - 16.8 - 11.0
22/11:00pm ESE 10 14 - - - - 10 Partly cloudy - 16.9 1021.0 10.6
22/10:30pm ESE 12 15 - - - - 10 Partly cloudy - 16.8 1020.7 10.6
22/10:00pm ESE 12 16 - - - - 10 Cloudy - 16.8 1020.4 10.6
22/09:30pm SE 10 13 - - - - 10 Partly cloudy - 17.0 1020.2 10.6
22/09:00pm SE 9 12 - - - - - Cloudy Recent precip. 17.1 1020.2 10.6
22/08:30pm SE 10 14 - - - - - - - 17.2 - 10.6
22/08:28pm SE 10 14 - - - - - - - 17.2 - 10.6
22/08:00pm SE 11 15 - - - - 10 Partly cloudy - 17.1 1020.1 10.4
22/07:49pm SE 10 13 - - - - 10 Partly cloudy - 17.1 1020.1 10.4
22/07:44pm SE 10 13 - - - - 10 Partly cloudy - 17.2 1020.1 10.4
22/07:30pm SSE 13 16 - - - - - - - 17.2 - 10.2
22/07:12pm SE 9 13 - - - - 6 Partly cloudy - 17.4 1020.1 9.0
22/07:00pm SE 9 15 - - - - 10 Partly cloudy - 17.6 1020.0 8.8
22/06:30pm SE 8 11 - - - - - - - 17.7 - 8.8
22/06:00pm SE 10 13 - - - - - Cloudy Recent precip. 17.6 1019.5 8.8
22/05:30pm SE 7 11 - - - - 10 Partly cloudy - 17.9 1019.1 8.8
22/05:00pm SE 9 12 - - - - - - - 18.0 1019.0 8.2
22/04:30pm SE 10 14 - - - - - - - 17.8 - 8.2
22/04:14pm SE 10 15 - - - - - - - 17.7 - 8.2
22/04:00pm SSE 8 13 - - - - 10 Partly cloudy - 17.8 1019.0 7.8
22/03:58pm SSE 8 12 - - - - 10 Partly cloudy - 17.9 1019.0 7.6
22/03:33pm ESE 14 17 - - - - - - - 17.8 - 7.6
22/03:30pm ESE 14 18 - - - - - - - 17.8 - 7.6
22/03:03pm SE 12 15 - - - - 10 Partly cloudy - 17.8 1018.6 7.6
22/03:00pm SE 11 15 - - - - 10 Cloudy Recent precip. 17.8 1018.6 7.6
22/02:38pm SE 12 15 - - - - 10 Partly cloudy - 17.9 1018.7 7.6
22/02:30pm SE 10 12 - - - - 8 Partly cloudy - 18.1 1018.9 7.6
22/02:27pm SE 9 11 - - - - 6 Partly cloudy - 18.2 1018.9 7.6
22/02:24pm SE 9 11 - - - - 6 Partly cloudy - 18.1 1018.9 7.6
22/02:00pm SE 11 13 - - - - 10 Partly cloudy - 18.3 1018.7 7.4
22/01:56pm SE 11 16 - - - - 10 Partly cloudy - 18.5 1018.6 7.4
22/01:40pm SE 11 15 - - - - - - - 18.6 - 7.2
22/01:37pm SE 11 14 - - - - - - - 18.4 - 7.2
22/01:30pm SSE 12 16 - - - - - - - 18.4 - 7.0
22/01:00pm SSW 6 9 - - - - - - - 18.5 1019.4 6.0
22/12:52pm SSW 7 9 - - - - - - - 18.6 - 3.6
22/12:30pm S 9 11 - - - - 10 Partly cloudy - 18.7 1019.1 2.6
22/12:19pm S 9 11 - - - - - - - 19.5 - 2.6
22/12:00pm S 3 6 - - - - 5 Cloudy Rain 19.7 1019.8 2.4
22/11:30am S 7 8 - - - - 10 Cloudy - 20.0 1019.8 1.2
22/11:00am SE 6 9 - - - - 10 Partly cloudy - 19.5 1019.8 1.2
22/10:30am ESE 5 7 - - - - 10 Partly cloudy - 19.2 1020.1 1.2
22/10:24am E 6 7 - - - - - - - 19.0 - 1.2
22/10:05am NNW 10 16 - - - - - - - 18.9 - 1.0
22/10:00am NW 9 16 - - - - - - - 20.2 1020.8 0.0
22/09:30am W 4 5 - - - - 10 Cloudy - 20.5 1020.3 0.0

Other formats

Comma delimited format used in spreadsheet applications
http://www.bom.gov.au/fwo/IDW60701/IDW60701.94300.axf

JavaScript Object Notation format (JSON) in row-major order
http://www.bom.gov.au/fwo/IDW60701/IDW60701.94300.json

Data quality

Most of these data are generated automatically and are frequently updated. Quality checks on data are not normally performed. It is possible for incorrect values to appear. Refer to information at About Latest Weather Observations and please check the disclaimer before using these data.